createdAt,value
2019-04-21T00:00:17.170Z,1025.42
2019-04-21T00:11:15.030Z,1025.46
2019-04-21T00:20:37.991Z,1025.27
2019-04-21T00:31:09.681Z,1025.18
2019-04-21T00:41:24.818Z,1025.13
2019-04-21T00:51:33.013Z,1025.07
2019-04-21T01:01:06.978Z,1025.15
2019-04-21T01:10:52.438Z,1025.25
2019-04-21T01:20:18.611Z,1025.17
2019-04-21T01:41:06.814Z,1025.06
2019-04-21T01:51:04.956Z,1025.06
2019-04-21T02:00:51.654Z,1025.05
2019-04-21T02:11:29.809Z,1024.96
2019-04-21T02:20:44.232Z,1024.91
2019-04-21T02:31:35.694Z,1024.86
2019-04-21T02:41:39.589Z,1024.77
2019-04-21T02:51:19.119Z,1024.73
2019-04-21T03:01:30.913Z,1024.67
2019-04-21T03:21:56.855Z,1024.44
2019-04-21T03:31:49.102Z,1024.33
2019-04-21T03:41:37.546Z,1024.35
2019-04-21T03:51:25.419Z,1024.22
2019-04-21T04:01:57.354Z,1024.20
2019-04-21T04:11:50.215Z,1024.21
2019-04-21T04:21:18.597Z,1024.25
2019-04-21T04:31:47.264Z,1024.24
2019-04-21T04:42:02.585Z,1024.18
2019-04-21T04:51:43.634Z,1024.13
2019-04-21T05:01:21.152Z,1024.11
2019-04-21T05:11:59.604Z,1024.05
2019-04-21T05:21:23.036Z,1023.90
2019-04-21T05:31:17.807Z,1023.85
2019-04-21T05:40:51.895Z,1023.92
2019-04-21T05:51:02.976Z,1023.85
2019-04-21T06:01:46.152Z,1023.79
2019-04-21T06:11:35.806Z,1023.80
2019-04-21T06:21:21.595Z,1023.75
2019-04-21T06:31:46.576Z,1023.66
2019-04-21T06:41:31.028Z,1023.60
2019-04-21T06:51:42.856Z,1023.55
2019-04-21T07:01:06.864Z,1023.52
2019-04-21T07:21:12.588Z,1023.47
2019-04-21T07:31:09.689Z,1023.34
2019-04-21T07:40:59.240Z,1023.30
2019-04-21T08:01:03.712Z,1023.20
2019-04-21T08:11:01.199Z,1023.16
2019-04-21T08:21:05.646Z,1023.05
2019-04-21T08:31:13.841Z,1022.96
2019-04-21T08:51:26.927Z,1022.77
2019-04-21T09:11:11.340Z,1022.53
2019-04-21T09:20:56.911Z,1022.40
2019-04-21T09:30:10.450Z,1022.29
2019-04-21T09:40:06.629Z,1022.24
2019-04-21T09:50:08.487Z,1022.18
2019-04-21T10:00:25.164Z,1022.07
2019-04-21T10:10:10.249Z,1021.96
2019-04-21T10:20:05.446Z,1021.87
2019-04-21T10:30:05.692Z,1021.79
2019-04-21T10:40:05.345Z,1021.41
2019-04-21T10:50:10.781Z,1021.55
2019-04-21T11:00:11.974Z,1021.42
2019-04-21T11:10:04.803Z,1021.34
2019-04-21T11:20:04.932Z,1021.17
2019-04-21T11:30:05.109Z,1021.07
2019-04-21T11:40:19.859Z,1020.97
2019-04-21T11:50:09.210Z,1020.88
2019-04-21T12:00:05.740Z,1020.82
2019-04-21T12:10:09.851Z,1020.76
2019-04-21T12:20:04.029Z,1020.54
2019-04-21T12:30:11.338Z,1020.46
2019-04-21T12:40:04.066Z,1020.35
2019-04-21T12:50:04.912Z,1020.16
2019-04-21T13:00:07.103Z,1020.07
2019-04-21T13:10:04.681Z,1020.05
2019-04-21T13:20:05.557Z,1019.75
2019-04-21T13:30:06.219Z,1019.78
2019-04-21T13:40:56.715Z,1019.54
2019-04-21T13:50:08.699Z,1019.46
2019-04-21T14:00:11.344Z,1019.29
2019-04-21T14:10:12.393Z,1019.14
2019-04-21T14:20:10.860Z,1018.92
2019-04-21T14:30:05.509Z,1018.90
2019-04-21T14:40:22.440Z,1018.93
2019-04-21T14:50:05.451Z,1018.75
2019-04-21T15:00:11.458Z,1018.69
2019-04-21T15:10:25.310Z,1018.64
2019-04-21T15:20:18.121Z,1018.58
2019-04-21T15:30:05.149Z,1018.49
2019-04-21T15:40:44.488Z,1018.40
2019-04-21T15:50:18.081Z,1018.32
2019-04-21T16:00:06.593Z,1018.20
2019-04-21T16:10:11.593Z,1018.19
2019-04-21T16:20:07.875Z,1018.05
2019-04-21T16:30:06.261Z,1018.01
2019-04-21T16:40:05.037Z,1017.94
2019-04-21T16:50:05.507Z,1017.84
2019-04-21T17:00:12.603Z,1017.81
2019-04-21T17:10:06.406Z,1017.79
2019-04-21T17:20:39.830Z,1017.76
2019-04-21T17:30:06.285Z,1017.73
2019-04-21T17:40:09.173Z,1017.80
2019-04-21T17:50:07.643Z,1017.75
2019-04-21T18:01:31.870Z,1017.75
2019-04-21T18:20:05.854Z,1017.82
2019-04-21T18:30:06.664Z,1017.87
2019-04-21T18:40:27.855Z,1017.92
2019-04-21T18:50:06.283Z,1017.98
2019-04-21T19:00:29.129Z,1018.09
2019-04-21T19:11:13.178Z,1018.09
2019-04-21T19:21:05.248Z,1018.03
2019-04-21T19:31:22.913Z,1018.03
2019-04-21T19:40:50.652Z,1018.02
2019-04-21T19:50:57.047Z,1017.90
2019-04-21T20:00:09.530Z,1017.81
2019-04-21T20:11:03.707Z,1017.77
2019-04-21T20:20:04.757Z,1017.76
2019-04-21T20:40:39.602Z,1017.65
2019-04-21T21:01:39.213Z,1017.51
2019-04-21T21:10:53.175Z,1017.51
2019-04-21T21:21:10.936Z,1017.45
2019-04-21T21:30:48.789Z,1017.39
2019-04-21T21:40:52.887Z,1017.38
2019-04-21T21:50:33.220Z,1017.25
2019-04-21T22:00:17.448Z,1017.25
2019-04-21T22:10:04.728Z,1017.21
2019-04-21T22:21:07.095Z,1017.15
2019-04-21T22:30:14.696Z,1017.05
2019-04-21T22:40:43.918Z,1017.05
2019-04-21T22:50:06.380Z,1016.89
2019-04-21T23:00:19.068Z,1016.93
2019-04-21T23:10:05.738Z,1016.92
2019-04-21T23:31:18.148Z,1016.76
2019-04-21T23:40:21.777Z,1016.74
2019-04-21T23:50:37.526Z,1016.77
